Selman City, Texas
Current Conditions -  °F | °C
As of 9:15 AM on Saturday 20 Dec 2014 (Local Time) from KRFI Reporting Station
Overcast Overcast  
Wind Chill: 42°   Ceiling: 400
Heat Index: 45°   Visibility: 7mi
Dew Point: 44°   Wind: 5mph
Humidity: 97%   Direction: 60°ENE
Pressure: 30.26"   Gusts: NA
Location:  32.19°N, 94.96°W
Report Text: KRFI 201515Z AUTO 06004KT 7SM OVC004 07/07 A3026 RMK AO2 T00700065
Loading
Personal Weather Stations






























Interactive Weather Map New forecast layout! Learn more

10-Day Weather Forecast

Advertisements
Track Severe Weather on mobile